createdAt,value
2022-10-19T00:00:11.023Z,20.15
2022-10-19T00:03:18.286Z,18.63
2022-10-19T00:06:33.227Z,19.98
2022-10-19T00:09:37.301Z,18.50
2022-10-19T00:12:41.169Z,22.75
2022-10-19T00:15:45.246Z,18.80
2022-10-19T00:18:49.248Z,17.23
2022-10-19T00:21:54.093Z,19.58
2022-10-19T00:24:58.206Z,21.45
2022-10-19T00:28:02.551Z,18.25
2022-10-19T00:31:16.932Z,17.10
2022-10-19T00:34:20.954Z,23.35
2022-10-19T00:37:24.652Z,17.27
2022-10-19T00:40:28.328Z,21.50
2022-10-19T00:43:32.195Z,18.40
2022-10-19T00:46:38.927Z,20.77
2022-10-19T00:49:45.236Z,23.35
2022-10-19T00:52:49.262Z,24.42
2022-10-19T00:55:54.043Z,20.33
2022-10-19T00:58:58.121Z,21.20
2022-10-19T01:02:04.124Z,19.48
2022-10-19T01:05:09.202Z,19.98
2022-10-19T01:08:13.696Z,20.20
2022-10-19T01:11:33.264Z,17.73
2022-10-19T01:14:46.272Z,25.38
2022-10-19T01:18:14.419Z,20.40
2022-10-19T01:21:28.818Z,16.58
2022-10-19T01:25:20.302Z,17.27
2022-10-19T01:28:36.461Z,16.30
2022-10-19T01:31:55.711Z,17.95
2022-10-19T01:35:22.753Z,17.00
2022-10-19T01:38:36.358Z,19.38
2022-10-19T01:41:51.368Z,19.50
2022-10-19T01:45:04.273Z,22.73
2022-10-19T01:48:14.930Z,15.68
2022-10-19T01:51:23.967Z,21.13
2022-10-19T01:54:33.965Z,18.50
2022-10-19T01:57:45.812Z,18.33
2022-10-19T02:00:53.417Z,16.70
2022-10-19T02:03:57.988Z,17.83
2022-10-19T02:07:04.386Z,19.63
2022-10-19T02:10:08.981Z,17.70
2022-10-19T02:13:15.638Z,19.17
2022-10-19T02:16:26.752Z,18.98
2022-10-19T02:19:31.048Z,19.45
2022-10-19T02:22:35.496Z,16.25
2022-10-19T02:25:39.359Z,20.23
2022-10-19T02:28:44.117Z,20.42
2022-10-19T02:31:48.174Z,18.35
2022-10-19T02:34:52.634Z,20.77
2022-10-19T02:38:00.907Z,23.13
2022-10-19T02:41:04.967Z,22.38
2022-10-19T02:44:23.549Z,16.65
2022-10-19T02:47:36.994Z,16.17
2022-10-19T02:50:45.303Z,19.08
2022-10-19T02:53:49.140Z,18.40
2022-10-19T02:56:53.091Z,21.77
2022-10-19T02:59:57.494Z,18.23
2022-10-19T03:03:02.943Z,18.45
2022-10-19T03:06:06.811Z,20.52
2022-10-19T03:09:10.447Z,20.85
2022-10-19T03:12:14.969Z,18.55
2022-10-19T03:15:19.789Z,19.15
2022-10-19T03:18:23.834Z,19.27
2022-10-19T03:21:27.929Z,15.43
2022-10-19T03:24:32.051Z,18.73
2022-10-19T03:27:36.418Z,18.50
2022-10-19T03:30:40.457Z,20.17
2022-10-19T03:33:44.599Z,21.70
2022-10-19T03:36:48.489Z,21.00
2022-10-19T03:39:52.663Z,18.42
2022-10-19T03:42:56.761Z,19.02
2022-10-19T03:46:00.678Z,20.45
2022-10-19T03:49:04.922Z,20.38
2022-10-19T03:52:09.935Z,17.92
2022-10-19T03:55:13.549Z,17.63
2022-10-19T03:58:17.410Z,19.17
2022-10-19T04:01:24.096Z,19.63
2022-10-19T04:04:28.453Z,25.17
2022-10-19T04:07:32.818Z,15.05
2022-10-19T04:10:36.879Z,21.63
2022-10-19T04:13:41.010Z,18.67
2022-10-19T04:16:45.385Z,18.38
2022-10-19T04:19:49.175Z,16.10
2022-10-19T04:22:53.398Z,19.70
2022-10-19T04:26:03.960Z,22.75
2022-10-19T04:29:08.525Z,18.40
2022-10-19T04:32:12.370Z,19.52
2022-10-19T04:35:16.244Z,16.70
2022-10-19T04:38:20.190Z,17.48
2022-10-19T04:41:24.572Z,17.25
2022-10-19T04:44:28.521Z,17.50
2022-10-19T04:47:32.840Z,19.33
2022-10-19T04:50:37.096Z,21.27
2022-10-19T04:53:42.117Z,25.83
2022-10-19T04:56:46.047Z,17.90
2022-10-19T04:59:49.953Z,19.20
2022-10-19T05:02:53.965Z,21.35
2022-10-19T05:05:59.498Z,24.20
2022-10-19T05:09:03.933Z,16.88
2022-10-19T05:12:07.887Z,14.57
2022-10-19T05:15:11.768Z,17.77
2022-10-19T05:18:15.674Z,20.08
2022-10-19T05:21:21.761Z,19.10
2022-10-19T05:24:25.945Z,14.77
2022-10-19T05:27:29.605Z,18.23
2022-10-19T05:30:33.168Z,16.48
2022-10-19T05:33:38.052Z,13.15
2022-10-19T05:36:42.183Z,19.70
2022-10-19T05:39:46.404Z,18.13
2022-10-19T05:42:50.129Z,20.08
2022-10-19T05:45:53.921Z,18.70
2022-10-19T05:48:59.483Z,15.50
2022-10-19T05:52:03.993Z,17.52
2022-10-19T05:55:08.643Z,16.73
2022-10-19T05:58:12.537Z,15.75
2022-10-19T06:01:18.916Z,18.90
2022-10-19T06:04:23.053Z,22.42
2022-10-19T06:07:27.363Z,18.23
2022-10-19T06:10:31.318Z,19.00
2022-10-19T06:13:36.014Z,15.48
2022-10-19T06:16:40.060Z,21.17
2022-10-19T06:19:44.062Z,18.30
2022-10-19T06:22:47.992Z,21.80
2022-10-19T06:25:52.157Z,19.20
2022-10-19T06:29:00.237Z,17.77
2022-10-19T06:32:04.540Z,17.35
2022-10-19T06:35:08.696Z,23.02
2022-10-19T06:38:13.803Z,15.57
2022-10-19T06:41:17.861Z,23.50
2022-10-19T06:44:22.470Z,19.38
2022-10-19T06:47:31.284Z,16.50
2022-10-19T06:50:35.501Z,23.52
2022-10-19T06:53:39.267Z,21.55
2022-10-19T06:56:43.236Z,21.27
2022-10-19T06:59:50.120Z,19.10
2022-10-19T07:02:58.522Z,16.02
2022-10-19T07:06:06.055Z,25.05
2022-10-19T07:09:10.193Z,21.98
2022-10-19T07:12:14.525Z,21.20
2022-10-19T07:15:19.884Z,19.33
2022-10-19T07:18:24.361Z,16.95
2022-10-19T07:21:28.219Z,21.52
2022-10-19T07:24:32.097Z,22.52
2022-10-19T07:27:37.839Z,19.05
2022-10-19T07:30:41.902Z,15.95
2022-10-19T07:33:45.715Z,15.90
2022-10-19T07:36:49.911Z,21.50
2022-10-19T07:39:54.143Z,14.93
2022-10-19T07:42:57.867Z,18.15
2022-10-19T07:46:04.647Z,19.88
2022-10-19T07:49:12.031Z,16.77
2022-10-19T07:52:16.194Z,16.98
2022-10-19T07:55:19.992Z,15.90
2022-10-19T07:58:24.271Z,14.32
2022-10-19T08:01:30.705Z,12.90
2022-10-19T08:07:59.090Z,12.57
2022-10-19T08:11:16.248Z,17.98
2022-10-19T08:14:20.191Z,16.52
2022-10-19T08:17:24.083Z,13.38
2022-10-19T08:20:28.204Z,13.57
2022-10-19T08:23:32.040Z,16.80
2022-10-19T08:26:38.213Z,16.08
2022-10-19T08:29:42.321Z,13.35
2022-10-19T08:32:46.549Z,15.70
2022-10-19T08:35:50.858Z,14.85
2022-10-19T08:38:55.076Z,13.82
2022-10-19T08:42:14.282Z,17.52
2022-10-19T08:45:46.957Z,15.95
2022-10-19T08:48:52.102Z,17.83
2022-10-19T08:52:00.696Z,16.10
2022-10-19T08:55:15.249Z,14.10
2022-10-19T08:59:01.385Z,17.83
2022-10-19T09:02:16.285Z,16.27
2022-10-19T09:05:28.770Z,12.45
2022-10-19T09:08:36.631Z,16.13
2022-10-19T09:11:44.493Z,14.32
2022-10-19T09:14:59.291Z,15.50
2022-10-19T09:18:03.843Z,13.10
2022-10-19T09:21:15.628Z,12.80
2022-10-19T09:24:25.894Z,13.80
2022-10-19T09:27:39.397Z,14.10
2022-10-19T09:33:53.166Z,13.25
2022-10-19T09:36:58.491Z,9.02
2022-10-19T09:40:02.764Z,9.85
2022-10-19T09:43:33.883Z,9.52
2022-10-19T09:46:57.025Z,8.70
2022-10-19T09:50:18.210Z,9.20
2022-10-19T09:53:22.756Z,11.57
2022-10-19T09:56:27.837Z,9.75
2022-10-19T09:59:36.587Z,9.45
2022-10-19T10:02:48.352Z,11.68
2022-10-19T10:05:53.694Z,9.07
2022-10-19T10:08:58.819Z,13.68
2022-10-19T10:12:04.491Z,11.95
2022-10-19T10:15:09.038Z,15.27
2022-10-19T10:18:15.437Z,7.65
2022-10-19T10:21:25.697Z,7.43
2022-10-19T10:24:32.636Z,7.88
2022-10-19T10:27:40.491Z,9.20
2022-10-19T10:30:46.727Z,7.78
2022-10-19T10:34:06.330Z,11.77
2022-10-19T10:37:34.860Z,7.78
2022-10-19T10:40:39.799Z,11.82
2022-10-19T10:44:22.009Z,9.65
2022-10-19T10:47:27.078Z,9.75
2022-10-19T10:50:36.453Z,9.00
2022-10-19T10:53:43.339Z,5.80
2022-10-19T10:57:13.161Z,8.05
2022-10-19T11:00:23.952Z,7.30
2022-10-19T11:03:29.148Z,10.02
2022-10-19T11:06:42.310Z,10.93
2022-10-19T11:09:57.315Z,6.95
2022-10-19T11:13:23.483Z,5.35
2022-10-19T11:16:49.986Z,8.55
2022-10-19T11:19:54.522Z,8.18
2022-10-19T11:23:09.097Z,5.68
2022-10-19T11:26:24.212Z,11.57
2022-10-19T11:29:44.611Z,5.68
2022-10-19T11:32:57.536Z,8.48
2022-10-19T11:36:15.574Z,8.02
2022-10-19T11:39:44.989Z,8.73
2022-10-19T11:43:04.793Z,6.35
2022-10-19T11:46:29.016Z,8.73
2022-10-19T11:49:59.686Z,5.65
2022-10-19T11:53:22.671Z,5.03
2022-10-19T11:57:02.556Z,6.43
2022-10-19T12:00:15.380Z,9.75
2022-10-19T12:03:52.880Z,6.28
2022-10-19T12:07:13.783Z,4.18
2022-10-19T12:10:20.965Z,7.10
2022-10-19T12:13:47.262Z,5.43
2022-10-19T12:16:56.539Z,9.00
2022-10-19T12:20:17.433Z,10.15
2022-10-19T12:23:46.617Z,7.20
2022-10-19T12:26:53.069Z,8.43
2022-10-19T12:30:04.398Z,5.43
2022-10-19T12:33:31.528Z,8.32
2022-10-19T12:36:56.966Z,5.88
2022-10-19T12:40:09.272Z,3.30
2022-10-19T12:43:20.061Z,7.70
2022-10-19T12:46:51.282Z,5.15
2022-10-19T12:49:58.127Z,2.80
2022-10-19T12:53:02.273Z,5.53
2022-10-19T12:56:09.152Z,4.60
2022-10-19T12:59:22.485Z,6.65
2022-10-19T13:02:31.019Z,5.13
2022-10-19T13:05:36.089Z,5.00
2022-10-19T13:08:57.297Z,5.60
2022-10-19T13:12:16.245Z,3.78
2022-10-19T13:15:36.017Z,8.00
2022-10-19T13:19:12.415Z,4.00
2022-10-19T13:22:24.553Z,6.93
2022-10-19T13:25:29.999Z,6.07
2022-10-19T13:28:34.435Z,4.53
2022-10-19T13:31:38.183Z,4.07
2022-10-19T13:34:42.150Z,5.25
2022-10-19T13:37:48.935Z,8.43
2022-10-19T13:40:52.977Z,6.22
2022-10-19T13:44:14.963Z,7.85
2022-10-19T13:50:49.591Z,7.28
2022-10-19T13:54:09.565Z,4.30
2022-10-19T13:57:46.133Z,5.47
2022-10-19T14:01:07.630Z,6.45
2022-10-19T14:04:44.871Z,5.43
2022-10-19T14:08:08.910Z,7.97
2022-10-19T14:11:21.584Z,5.68
2022-10-19T14:14:28.007Z,3.13
2022-10-19T14:17:34.108Z,7.22
2022-10-19T14:20:39.245Z,4.32
2022-10-19T14:23:43.468Z,6.55
2022-10-19T14:26:48.131Z,6.28
2022-10-19T14:29:54.247Z,6.85
2022-10-19T14:33:02.306Z,6.22
2022-10-19T14:36:13.745Z,5.50
2022-10-19T14:39:29.387Z,5.40
2022-10-19T14:42:45.346Z,6.00
2022-10-19T14:46:08.078Z,7.30
2022-10-19T14:49:12.351Z,6.05
2022-10-19T14:52:29.333Z,4.85
2022-10-19T14:55:37.667Z,6.30
2022-10-19T14:58:50.412Z,4.30
2022-10-19T15:01:58.390Z,7.22
2022-10-19T15:05:05.169Z,5.78
2022-10-19T15:08:17.326Z,6.25
2022-10-19T15:11:37.740Z,5.75
2022-10-19T15:14:42.149Z,8.27
2022-10-19T15:17:55.090Z,5.88
2022-10-19T15:21:19.588Z,6.18
2022-10-19T15:27:34.867Z,6.25
2022-10-19T15:30:39.031Z,5.25
2022-10-19T15:34:02.763Z,12.52
2022-10-19T15:37:18.444Z,4.10
2022-10-19T15:40:49.450Z,5.80
2022-10-19T15:43:56.752Z,9.02
2022-10-19T15:47:16.435Z,4.85
2022-10-19T15:50:38.647Z,4.43
2022-10-19T15:53:42.539Z,9.23
2022-10-19T15:56:50.972Z,7.20
2022-10-19T15:59:56.921Z,8.18
2022-10-19T16:03:00.908Z,8.05
2022-10-19T16:06:05.323Z,4.13
2022-10-19T16:09:17.048Z,8.00
2022-10-19T16:12:22.831Z,4.93
2022-10-19T16:15:26.894Z,3.28
2022-10-19T16:18:30.802Z,3.85
2022-10-19T16:21:36.189Z,7.72
2022-10-19T16:24:40.829Z,8.80
2022-10-19T16:27:44.741Z,4.20
2022-10-19T16:30:52.718Z,8.13
2022-10-19T16:33:56.803Z,6.22
2022-10-19T16:37:04.118Z,5.05
2022-10-19T16:40:10.897Z,7.95
2022-10-19T16:43:14.765Z,3.28
2022-10-19T16:46:21.801Z,4.95
2022-10-19T16:49:26.173Z,4.38
2022-10-19T16:52:34.277Z,4.57
2022-10-19T16:55:40.495Z,4.55
2022-10-19T16:58:44.766Z,3.38
2022-10-19T17:01:48.667Z,6.45
2022-10-19T17:04:53.089Z,4.78
2022-10-19T17:07:57.118Z,4.07
2022-10-19T17:11:19.165Z,6.30
2022-10-19T17:14:23.441Z,6.47
2022-10-19T17:17:27.376Z,4.25
2022-10-19T17:20:34.644Z,6.82
2022-10-19T17:23:39.328Z,5.82
2022-10-19T17:26:47.302Z,3.80
2022-10-19T17:29:51.088Z,6.22
2022-10-19T17:32:55.077Z,6.47
2022-10-19T17:36:14.661Z,6.88
2022-10-19T17:39:25.594Z,4.75
2022-10-19T17:42:36.480Z,7.55
2022-10-19T17:45:40.731Z,5.72
2022-10-19T17:48:46.474Z,6.13
2022-10-19T17:51:52.190Z,7.40
2022-10-19T17:55:12.477Z,9.05
2022-10-19T17:58:16.715Z,9.98
2022-10-19T18:01:21.609Z,14.02
2022-10-19T18:04:25.653Z,11.18
2022-10-19T18:07:29.454Z,12.40
2022-10-19T18:10:35.443Z,9.75
2022-10-19T18:13:40.248Z,11.43
2022-10-19T18:16:46.230Z,11.02
2022-10-19T18:19:50.280Z,9.63
2022-10-19T18:22:54.395Z,11.13
2022-10-19T18:26:03.195Z,10.70
2022-10-19T18:29:15.539Z,10.00
2022-10-19T18:32:19.304Z,9.25
2022-10-19T18:35:23.430Z,9.70
2022-10-19T18:38:27.713Z,10.35
2022-10-19T18:41:32.006Z,14.30
2022-10-19T18:44:36.126Z,11.25
2022-10-19T18:47:40.166Z,12.52
2022-10-19T18:50:44.328Z,12.32
2022-10-19T18:53:48.566Z,11.55
2022-10-19T18:56:52.739Z,11.93
2022-10-19T18:59:56.871Z,10.30
2022-10-19T19:03:00.980Z,15.55
2022-10-19T19:06:09.408Z,14.27
2022-10-19T19:09:13.401Z,19.48
2022-10-19T19:12:17.489Z,15.10
2022-10-19T19:15:21.780Z,14.05
2022-10-19T19:18:26.299Z,10.10
2022-10-19T19:21:31.628Z,10.43
2022-10-19T19:24:36.274Z,12.93
2022-10-19T19:27:40.307Z,11.18
2022-10-19T19:30:45.520Z,15.05
2022-10-19T19:33:49.357Z,12.15
2022-10-19T19:36:53.464Z,16.40
2022-10-19T19:39:57.534Z,12.60
2022-10-19T19:43:01.718Z,16.52
2022-10-19T19:46:12.552Z,13.50
2022-10-19T19:49:16.781Z,9.95
2022-10-19T19:52:20.856Z,12.82
2022-10-19T19:55:25.371Z,12.52
2022-10-19T19:58:29.531Z,12.60
2022-10-19T20:01:33.621Z,16.13
2022-10-19T20:04:37.680Z,12.20
2022-10-19T20:07:41.301Z,11.65
2022-10-19T20:10:44.994Z,14.45
2022-10-19T20:13:49.251Z,12.55
2022-10-19T20:16:53.291Z,11.55
2022-10-19T20:19:57.306Z,10.45
2022-10-19T20:23:01.023Z,12.43
2022-10-19T20:26:05.630Z,14.70
2022-10-19T20:29:10.047Z,12.13
2022-10-19T20:32:14.271Z,10.02
2022-10-19T20:35:18.249Z,11.63
2022-10-19T20:38:21.999Z,14.73
2022-10-19T20:41:27.673Z,9.82
2022-10-19T20:44:31.767Z,13.25
2022-10-19T20:47:35.481Z,12.07
2022-10-19T20:50:40.413Z,13.65
2022-10-19T20:53:47.347Z,11.73
2022-10-19T20:56:51.818Z,14.40
2022-10-19T20:59:55.702Z,17.02
2022-10-19T21:02:59.670Z,13.15
2022-10-19T21:06:05.782Z,15.23
2022-10-19T21:09:10.756Z,10.73
2022-10-19T21:12:14.734Z,11.27
2022-10-19T21:15:18.577Z,10.10
2022-10-19T21:18:23.062Z,12.95
2022-10-19T21:21:29.389Z,12.52
2022-10-19T21:24:35.951Z,11.73
2022-10-19T21:27:40.056Z,15.90
2022-10-19T21:30:43.834Z,14.25
2022-10-19T21:33:48.032Z,12.77
2022-10-19T21:36:52.553Z,13.07
2022-10-19T21:39:56.497Z,9.50
2022-10-19T21:43:00.625Z,11.30
2022-10-19T21:46:05.923Z,11.65
2022-10-19T21:49:12.181Z,9.77
2022-10-19T21:52:16.302Z,11.10
2022-10-19T21:55:20.518Z,9.63
2022-10-19T21:58:24.482Z,9.60
2022-10-19T22:01:30.276Z,10.05
2022-10-19T22:04:34.097Z,13.93
2022-10-19T22:07:38.398Z,8.70
2022-10-19T22:10:42.644Z,10.73
2022-10-19T22:13:46.648Z,7.97
2022-10-19T22:16:50.732Z,10.32
2022-10-19T22:19:54.530Z,10.85
2022-10-19T22:22:58.679Z,7.78
2022-10-19T22:26:02.579Z,9.18
2022-10-19T22:29:07.735Z,7.82
2022-10-19T22:32:11.360Z,12.02
2022-10-19T22:35:15.098Z,10.10
2022-10-19T22:38:19.215Z,8.55
2022-10-19T22:41:23.108Z,7.75
2022-10-19T22:44:26.728Z,7.63
2022-10-19T22:47:30.465Z,9.23
2022-10-19T22:50:34.392Z,7.95
2022-10-19T22:53:38.478Z,7.72
2022-10-19T22:56:43.013Z,9.07
2022-10-19T22:59:46.896Z,7.22
2022-10-19T23:02:50.985Z,6.47
2022-10-19T23:05:55.253Z,8.43
2022-10-19T23:08:59.537Z,7.25
2022-10-19T23:12:03.664Z,7.93
2022-10-19T23:15:08.546Z,5.63
2022-10-19T23:18:13.007Z,8.00
2022-10-19T23:21:16.877Z,11.10
2022-10-19T23:24:20.875Z,9.05
2022-10-19T23:27:24.910Z,8.48
2022-10-19T23:30:28.878Z,8.45
2022-10-19T23:33:33.489Z,7.18
2022-10-19T23:36:37.877Z,7.68
2022-10-19T23:39:41.947Z,6.75
2022-10-19T23:42:45.851Z,8.48
2022-10-19T23:45:50.154Z,8.20
2022-10-19T23:48:54.281Z,8.38
2022-10-19T23:51:58.267Z,9.23
2022-10-19T23:55:02.145Z,7.80
2022-10-19T23:58:05.815Z,6.32
